• Join FlightAware (Why Join?)
  • Login
  • US Flag 
03:23PM EDT


 

Airport Tracker/Info


-or-


 

Live Flight TrackerFlight Track Log ✈ WBR2623 ✈ 17-Jun-2013 ✈ KORD - KBRL

Flight Track Log - Related Links

Times and Time Zones

All times are in EDT time to prevent confusion due to time zone crossing. See the WBR2623 flight status page for this flight to view local times or setup timezone preferences in your user account.

Time Position Orientation Groundspeed Altitude Reporting Facility
EDT Latitude Longitude Course Direction KTS MPH feet Rate Location/Type
09:18AM 41.9333 -87.9333 270° West 109 125 1,700  Level Chicago TRACON
09:19AM 41.9333 -87.9667 270° West 105 121 2,700 900 Climbing Chicago TRACON
09:20AM 41.9167 -88.0000 236° Southwest 108 124 3,600 780 Climbing Chicago TRACON
09:21AM 41.9167 -88.0333 270° West 116 133 4,300 720 Climbing Chicago TRACON
09:22AM 41.9167 -88.0833 270° West 112 129 5,100 780 Climbing Chicago TRACON
09:23AM 41.9667 -88.1700 270° West  Level FlightAware Approximate
09:23AM 41.9167 -88.1167 270° West 113 130 5,900  Level Chicago TRACON
09:24AM 41.9258 -88.1553 288° West 116 133 6,200 660 Climbing Chicago Center
09:25AM 41.9161 -88.2086 256° West 121 139 7,200 720 Climbing Chicago Center
09:26AM 41.9111 -88.2547 262° West 125 144 7,800 420 Climbing Chicago Center
09:27AM 41.9044 -88.3039 260° West 133 153 8,100 120 Climbing Chicago Center
09:28AM 41.8942 -88.3589 256° West 150 173 8,100 -60 Level Chicago Center
09:29AM 41.8981 -88.4139 275° West 151 174 8,000 -60 Descending Chicago Center
09:30AM 41.9111 -88.4744 286° West 146 168 8,000 -60 Level Chicago Center
09:31AM 41.9069 -88.5294 264° West 149 171 7,900 -60 Descending Chicago Center
09:32AM 41.9036 -88.5819 265° West 145 167 7,900  Level Chicago Center
09:33AM 41.9008 -88.6358 266° West 143 165 7,900  Level Chicago Center
09:34AM 41.8972 -88.6894 265° West 144 166 7,900  Level Chicago Center
09:35AM 41.8931 -88.7525 265° West 143 165 7,900  Level Chicago Center
09:36AM 41.8878 -88.8050 262° West 144 166 7,900  Level Chicago Center
09:37AM 41.8722 -88.8525 246° West 142 163 7,900  Level Chicago Center
09:38AM 41.8503 -88.8994 238° Southwest 147 169 7,900  Level Chicago Center
09:39AM 41.8300 -88.9444 239° Southwest 145 167 7,900  Level Chicago Center
09:40AM 41.8047 -89.0011 239° Southwest 148 170 8,000  Climbing Chicago Center
09:41AM 41.7844 -89.0464 239° Southwest 145 167 7,900 -60 Descending Chicago Center
09:42AM 41.7633 -89.0931 239° Southwest 147 169 7,900  Level Chicago Center
09:43AM 41.7433 -89.1397 240° Southwest 146 168 7,900  Level Chicago Center
09:44AM 41.7233 -89.1850 239° Southwest 144 166 8,000  Climbing Chicago Center
09:45AM 41.6989 -89.2394 239° Southwest 145 167 8,000 -60 Level Chicago Center
09:46AM 41.6756 -89.2828 234° Southwest 144 166 7,900 -60 Descending Chicago Center
09:47AM 41.6550 -89.3283 239° Southwest 144 166 7,900  Level Chicago Center
09:48AM 41.6328 -89.3736 237° Southwest 145 167 7,900  Level Chicago Center
09:50AM 41.6122 -89.4183 238° Southwest 144 166 7,900  Level Chicago Center
09:51AM 41.5881 -89.4714 239° Southwest 141 162 8,000  Climbing Chicago Center
09:52AM 41.5653 -89.5147 235° Southwest 143 165 8,000 -60 Level Chicago Center
09:53AM 41.5467 -89.5558 239° Southwest 144 166 7,900  Descending Chicago Center
09:55AM 41.5000 -89.6539 238° Southwest 142 163 8,000  Climbing Chicago Center
09:56AM 41.4797 -89.6986 239° Southwest 142 163 7,900 -60 Descending Chicago Center
09:57AM 41.4589 -89.7419 237° Southwest 141 162 7,900  Level Chicago Center
09:58AM 41.4383 -89.7878 239° Southwest 143 165 8,000  Climbing Chicago Center
09:59AM 41.4128 -89.8419 238° Southwest 144 166 7,900  Descending Chicago Center
10:00AM 41.3922 -89.8853 238° Southwest 140 161 8,000  Climbing Chicago Center
10:01AM 41.3703 -89.9300 237° Southwest 144 166 8,000  Level Chicago Center
10:02AM 41.3486 -89.9725 236° Southwest 143 165 8,000 -60 Level Chicago Center
10:03AM 41.3250 -90.0169 235° Southwest 146 168 7,900 -60 Descending Chicago Center
10:04AM 41.3036 -90.0619 238° Southwest 145 167 7,900  Level Chicago Center
10:05AM 41.2781 -90.1161 238° Southwest 146 168 8,000  Climbing Chicago Center
10:06AM 41.2564 -90.1592 236° Southwest 142 163 8,000  Level Chicago Center
10:07AM 41.2333 -90.2031 235° Southwest 145 167 8,000  Level Chicago Center
10:08AM 41.2122 -90.2461 237° Southwest 142 163 8,000  Level Chicago Center
10:10AM 41.1851 -90.3084 240° Southwest  Level FlightAware Approximate
10:10AM 41.1683 -90.3369 240° Southwest 145 167 8,000  Level Chicago Center
10:11AM 41.1450 -90.3892 239° Southwest 139 160 7,900 -60 Descending Chicago Center
10:12AM 41.1214 -90.4336 235° Southwest 145 167 7,900  Level Chicago Center
10:13AM 41.1000 -90.4781 237° Southwest 143 165 8,000 60 Climbing Chicago Center
10:14AM 41.0781 -90.5217 236° Southwest 143 165 8,100  Climbing Chicago Center
10:15AM 41.0519 -90.5703 235° Southwest 141 162 8,100 -120 Level Chicago Center
10:16AM 41.0286 -90.6128 234° Southwest 142 163 7,900 -480 Descending Chicago Center
10:17AM 41.0025 -90.6592 233° Southwest 152 175 7,200 -780 Descending Chicago Center
10:19AM 40.9733 -90.7108 233° Southwest 165 190 6,400 -720 Descending Chicago Center
10:20AM 40.9428 -90.7589 230° Southwest 169 194 5,800 -540 Descending Chicago Center
10:21AM 40.9189 -90.8108 239° Southwest 169 194 5,400 -600 Descending Chicago Center
10:22AM 40.8881 -90.8708 236° Southwest 167 192 4,600 -660 Descending Chicago Center
10:23AM 40.8606 -90.9217 234° Southwest 169 194 4,100 -540 Descending Chicago Center
10:24AM 40.8286 -90.9689 228° Southwest 170 196 3,500 -720 Descending Chicago Center
10:25AM 40.7967 -91.0111 225° Southwest 167 192 2,700 -840 Descending Chicago Center
10:26AM 40.7675 -91.0558 229° Southwest 165 190 1,800 -960 Descending Chicago Center
10:27AM 40.7767 -91.1092 283° West 142 163 800 -540 Descending Chicago Center
10:28AM 40.7981 -91.1406 312° West 137 158 700 -120 Descending Chicago Center